ADDS TAF Board (Experimental) INFO

IDs: Format: Expanded Condensed

Updated at: 1203 UTC 21 Sep 2014

KIAD - Washington/Dulles In, VA, US

Issued at 1141 UTC 21 Sep 2014
Time1152Z21/13Z21/14Z21/15Z21/16Z21/17Z21/18Z21/19Z21/20Z21/21Z21/22Z21/23Z22/00Z22/01Z
TypeOBSPRVLPRVLPRVLPRVLPRVLPRVLPRVLPRVLPRVLPRVLPRVLPRVLPRVL
VIS7>6>6>6>6>6>6>6>6>6>6>6>6>6
CIG--------------60606060606060
CoverCLRSCTSCTSCTSCTSCTSCTBKNBKNBKNBKNBKNBKNBKN
FltCat--VFRVFRVFRVFRVFRVFRVFRVFRVFRVFRVFRVFRVFR
WX----------------------------
WDir130VRBVRBVRBVRB250250250250250250250250250
WSpd30000669999999
WGst----------------------------
R01/19
XWnd-2VRBVRBVRBVRB668888888
HWnd-2VRBVRBVRBVRB-2-2-3-3-3-3-3-3-3
R12/30
XWnd-1VRBVRBVRBVRB-4-4-6-6-6-6-6-6-6
HWnd3VRBVRBVRBVRB-5-5-7-7-7-7-7-7-7
Raw TAF
KIAD 211141Z 2112/2218 00000KT P6SM SCT250
  FM211700 25006KT P6SM SCT200
  FM211900 25009KT P6SM BKN060
  FM220300 29005KT P6SM BKN080
  FM221000 32012G18KT P6SM SCT200


Raw METAR
KIAD 211152Z 13003KT 7SM CLR 12/12 A2990 RMK AO2 SLP122 T01220122 10144 20111 56013

TAF Board Legend

Hazard VFR MVFR IFR LIFR
Visibility (sm) >5 3≤X≤5 1≤X<3 <1
Ceiling (100 ft) >30 10≤X≤30 5≤X<10 <5
Wind Speed (kt) <10 10≤X<20 20≤X<30 ≥30
Wind Gust (kt) <15 15≤X<25 25≤X<35 ≥35
Weather No Wx Reported VCTS,-TS,-FZRA TS,FZRA +TS,+FZRA


Page loaded:  12:03 UTC  |   05:03 AM Pacific  |   06:03 AM Mountain  |   07:03 AM Central  |   08:03 AM Eastern

 

ADVISORIES

FORECASTS

FORECASTS

OBSERVATIONS

USER TOOLS

ABOUT US